createdAt,value
2023-04-11T00:00:31.614Z,3.03
2023-04-11T00:03:01.811Z,3.53
2023-04-11T00:05:33.183Z,2.88
2023-04-11T00:08:03.140Z,3.10
2023-04-11T00:10:35.420Z,2.90
2023-04-11T00:13:07.497Z,3.47
2023-04-11T00:15:37.642Z,3.20
2023-04-11T00:18:07.761Z,3.33
2023-04-11T00:20:37.496Z,3.10
2023-04-11T00:23:08.902Z,3.15
2023-04-11T00:25:41.379Z,3.10
2023-04-11T00:28:11.046Z,3.40
2023-04-11T00:30:41.525Z,3.42
2023-04-11T00:33:11.261Z,3.58
2023-04-11T00:35:41.066Z,3.17
2023-04-11T00:38:11.109Z,3.30
2023-04-11T00:40:43.469Z,3.38
2023-04-11T00:43:13.393Z,2.88
2023-04-11T00:45:43.208Z,3.38
2023-04-11T00:48:13.602Z,3.47
2023-04-11T00:50:44.836Z,3.33
2023-04-11T00:53:15.624Z,3.20
2023-04-11T00:55:48.252Z,3.00
2023-04-11T00:58:19.768Z,3.40
2023-04-11T01:00:51.768Z,3.38
2023-04-11T01:03:22.943Z,3.25
2023-04-11T01:05:55.122Z,3.30
2023-04-11T01:08:25.748Z,3.13
2023-04-11T01:10:58.289Z,3.28
2023-04-11T01:13:28.564Z,3.13
2023-04-11T01:15:58.741Z,3.20
2023-04-11T01:18:28.505Z,3.20
2023-04-11T01:20:58.319Z,3.17
2023-04-11T01:23:31.405Z,3.00
2023-04-11T01:26:02.110Z,3.10
2023-04-11T01:28:31.801Z,3.17
2023-04-11T01:31:01.536Z,2.95
2023-04-11T01:33:31.441Z,3.10
2023-04-11T01:36:01.555Z,2.53
2023-04-11T01:38:33.865Z,2.70
2023-04-11T01:41:03.961Z,2.50
2023-04-11T01:43:33.695Z,2.70
2023-04-11T01:46:03.659Z,2.60
2023-04-11T01:48:36.539Z,2.70
2023-04-11T01:51:08.849Z,3.22
2023-04-11T01:53:41.229Z,2.88
2023-04-11T01:56:12.196Z,2.42
2023-04-11T01:58:41.882Z,2.63
2023-04-11T02:01:13.463Z,2.20
2023-04-11T02:03:43.320Z,2.50
2023-04-11T02:06:13.059Z,5.55
2023-04-11T02:08:45.337Z,2.40
2023-04-11T02:11:15.071Z,1.17
2023-04-11T02:13:44.708Z,1.50
2023-04-11T02:16:18.393Z,1.77
2023-04-11T02:18:49.282Z,1.30
2023-04-11T02:21:18.968Z,1.10
2023-04-11T02:23:51.453Z,0.90
2023-04-11T02:26:21.192Z,0.70
2023-04-11T02:28:50.845Z,0.60
2023-04-11T02:31:21.203Z,0.70
2023-04-11T02:33:50.929Z,0.45
2023-04-11T02:36:22.152Z,0.50
2023-04-11T02:38:54.581Z,0.50
2023-04-11T02:41:24.498Z,0.40
2023-04-11T02:43:54.210Z,0.60
2023-04-11T02:46:25.077Z,0.40
2023-04-11T02:48:54.934Z,0.60
2023-04-11T02:51:24.830Z,2.30
2023-04-11T02:53:57.588Z,3.95
2023-04-11T02:56:27.411Z,3.80
2023-04-11T02:58:59.772Z,3.05
2023-04-11T03:01:30.821Z,2.67
2023-04-11T03:04:00.740Z,0.82
2023-04-11T03:06:41.086Z,1.65
2023-04-11T03:09:13.707Z,0.40
2023-04-11T03:11:46.807Z,0.45
2023-04-11T03:14:17.764Z,0.50
2023-04-11T03:16:50.076Z,0.60
2023-04-11T03:19:19.881Z,0.40
2023-04-11T03:21:49.509Z,0.55
2023-04-11T03:24:22.522Z,0.50
2023-04-11T03:26:53.089Z,0.50
2023-04-11T03:29:22.744Z,0.70
2023-04-11T03:32:07.605Z,0.60
2023-04-11T03:34:38.885Z,0.55
2023-04-11T03:37:11.012Z,0.68
2023-04-11T03:39:44.185Z,0.40
2023-04-11T03:42:14.221Z,0.55
2023-04-11T03:44:44.380Z,0.50
2023-04-11T03:47:14.627Z,0.75
2023-04-11T03:49:46.157Z,0.52
2023-04-11T03:52:18.051Z,0.63
2023-04-11T03:54:52.741Z,0.70
2023-04-11T03:57:22.453Z,0.60
2023-04-11T03:59:52.142Z,0.80
2023-04-11T04:02:22.047Z,0.60
2023-04-11T04:04:58.996Z,1.00
2023-04-11T04:07:32.958Z,1.05
2023-04-11T04:10:17.982Z,0.75
2023-04-11T04:12:52.390Z,1.25
2023-04-11T04:15:24.490Z,0.77
2023-04-11T04:17:54.839Z,0.70
2023-04-11T04:20:44.302Z,0.80
2023-04-11T04:23:14.476Z,0.93
2023-04-11T04:26:13.330Z,0.90
2023-04-11T04:31:25.851Z,0.63
2023-04-11T04:34:08.769Z,0.68
2023-04-11T04:36:48.053Z,0.75
2023-04-11T04:39:25.552Z,0.75
2023-04-11T04:42:01.483Z,0.80
2023-04-11T04:44:37.821Z,0.95
2023-04-11T04:47:15.256Z,0.80
2023-04-11T04:49:44.992Z,0.60
2023-04-11T04:52:15.000Z,0.80
2023-04-11T04:54:44.965Z,0.90
2023-04-11T04:57:17.381Z,0.80
2023-04-11T04:59:47.968Z,0.82
2023-04-11T05:02:18.405Z,1.48
2023-04-11T05:04:50.462Z,0.80
2023-04-11T05:07:21.018Z,1.65
2023-04-11T05:09:54.022Z,1.58
2023-04-11T05:12:30.171Z,1.27
2023-04-11T05:15:05.421Z,1.13
2023-04-11T05:17:35.930Z,1.00
2023-04-11T05:20:07.150Z,1.30
2023-04-11T05:22:38.097Z,1.30
2023-04-11T05:25:11.792Z,1.42
2023-04-11T05:27:46.262Z,1.95
2023-04-11T05:30:16.897Z,1.90
2023-04-11T05:32:48.267Z,1.08
2023-04-11T05:35:18.287Z,1.65
2023-04-11T05:37:52.398Z,1.20
2023-04-11T05:40:22.353Z,2.22
2023-04-11T05:42:54.727Z,1.33
2023-04-11T05:45:24.493Z,1.40
2023-04-11T05:47:54.552Z,1.40
2023-04-11T05:50:24.594Z,1.27
2023-04-11T05:52:54.360Z,1.38
2023-04-11T05:55:24.004Z,0.93
2023-04-11T05:57:56.231Z,0.88
2023-04-11T06:00:28.656Z,0.90
2023-04-11T06:02:58.938Z,0.70
2023-04-11T06:05:31.766Z,0.95
2023-04-11T06:08:02.263Z,1.00
2023-04-11T06:10:33.074Z,0.90
2023-04-11T06:13:05.576Z,0.90
2023-04-11T06:15:35.371Z,0.90
2023-04-11T06:18:05.208Z,1.00
2023-04-11T06:20:35.151Z,1.13
2023-04-11T06:23:04.791Z,1.45
2023-04-11T06:25:34.445Z,1.13
2023-04-11T06:28:06.836Z,1.30
2023-04-11T06:30:36.559Z,1.20
2023-04-11T06:33:06.420Z,1.20
2023-04-11T06:35:36.362Z,0.90
2023-04-11T06:38:06.130Z,0.98
2023-04-11T06:40:35.850Z,0.77
2023-04-11T06:43:08.104Z,0.90
2023-04-11T06:45:38.361Z,1.00
2023-04-11T06:48:09.038Z,1.30
2023-04-11T06:50:41.903Z,1.15
2023-04-11T06:53:11.571Z,0.80
2023-04-11T06:55:41.295Z,1.52
2023-04-11T06:58:13.550Z,1.40
2023-04-11T07:00:43.272Z,1.00
2023-04-11T07:03:14.147Z,1.20
2023-04-11T07:05:43.912Z,1.30
2023-04-11T07:08:13.590Z,1.35
2023-04-11T07:10:43.259Z,1.30
2023-04-11T07:13:15.597Z,1.60
2023-04-11T07:15:45.248Z,1.60
2023-04-11T07:18:15.115Z,1.50
2023-04-11T07:20:48.727Z,1.63
2023-04-11T07:23:18.350Z,2.28
2023-04-11T07:25:49.458Z,2.70
2023-04-11T07:28:22.318Z,2.40
2023-04-11T07:30:52.075Z,2.70
2023-04-11T07:33:21.838Z,3.08
2023-04-11T07:35:51.638Z,2.50
2023-04-11T07:38:27.569Z,2.80
2023-04-11T07:43:30.734Z,2.33
2023-04-11T07:46:01.774Z,2.50
2023-04-11T07:48:33.404Z,2.83
2023-04-11T07:51:03.148Z,2.90
2023-04-11T07:53:33.795Z,2.88
2023-04-11T07:56:03.510Z,1.90
2023-04-11T07:58:35.788Z,1.70
2023-04-11T08:01:05.748Z,2.40
2023-04-11T08:03:35.581Z,2.30
2023-04-11T08:06:05.493Z,2.58
2023-04-11T08:08:35.190Z,2.25
2023-04-11T08:11:04.833Z,2.00
2023-04-11T08:13:37.070Z,1.35
2023-04-11T08:16:09.790Z,1.30
2023-04-11T08:18:42.339Z,0.90
2023-04-11T08:21:13.684Z,0.80
2023-04-11T08:23:43.435Z,0.70
2023-04-11T08:26:13.604Z,0.60
2023-04-11T08:28:45.816Z,0.90
2023-04-11T08:31:15.702Z,0.82
2023-04-11T08:33:45.546Z,0.70
2023-04-11T08:36:15.886Z,0.60
2023-04-11T08:38:45.606Z,0.60
2023-04-11T08:41:15.341Z,0.52
2023-04-11T08:43:48.428Z,0.60
2023-04-11T08:46:18.652Z,0.50
2023-04-11T08:48:48.496Z,0.63
2023-04-11T08:51:24.634Z,0.55
2023-04-11T08:53:58.181Z,0.60
2023-04-11T08:56:28.395Z,0.75
2023-04-11T08:59:00.802Z,0.70
2023-04-11T09:01:32.647Z,0.52
2023-04-11T09:04:05.418Z,0.40
2023-04-11T09:06:37.081Z,0.50
2023-04-11T09:09:08.334Z,0.60
2023-04-11T09:11:57.036Z,0.40
2023-04-11T09:14:29.826Z,0.30
2023-04-11T09:17:01.301Z,0.40
2023-04-11T09:19:32.352Z,2.80
2023-04-11T09:22:05.036Z,0.30
2023-04-11T09:24:35.789Z,0.40
2023-04-11T09:27:10.688Z,0.40
2023-04-11T09:29:45.699Z,0.50
2023-04-11T09:32:31.198Z,1.00
2023-04-11T09:35:11.563Z,0.90
2023-04-11T09:37:46.930Z,1.42
2023-04-11T09:40:18.515Z,0.60
2023-04-11T09:42:49.923Z,0.70
2023-04-11T09:45:24.354Z,0.82
2023-04-11T09:47:55.856Z,0.90
2023-04-11T09:50:26.804Z,0.80
2023-04-11T09:52:59.286Z,0.70
2023-04-11T09:55:29.484Z,1.08
2023-04-11T09:57:59.145Z,1.38
2023-04-11T10:00:32.696Z,0.85
2023-04-11T10:03:02.807Z,1.00
2023-04-11T10:05:33.058Z,1.27
2023-04-11T10:08:07.180Z,1.13
2023-04-11T10:10:38.480Z,1.00
2023-04-11T10:13:40.152Z,1.05
2023-04-11T10:16:17.035Z,1.10
2023-04-11T10:19:17.110Z,1.08
2023-04-11T10:21:46.907Z,1.33
2023-04-11T10:24:18.134Z,1.13
2023-04-11T10:26:52.872Z,1.80
2023-04-11T10:29:53.243Z,0.90
2023-04-11T10:32:28.740Z,1.40
2023-04-11T10:35:23.655Z,1.45
2023-04-11T10:37:53.389Z,1.85
2023-04-11T10:40:24.336Z,1.38
2023-04-11T10:42:54.068Z,1.25
2023-04-11T10:45:28.365Z,1.10
2023-04-11T10:48:13.048Z,1.30
2023-04-11T10:50:46.588Z,1.00
2023-04-11T10:53:37.544Z,1.55
2023-04-11T10:56:08.205Z,1.13
2023-04-11T10:58:39.870Z,1.65
2023-04-11T11:01:37.099Z,1.10
2023-04-11T11:04:15.749Z,1.90
2023-04-11T11:06:56.450Z,1.55
2023-04-11T11:09:28.922Z,1.30
2023-04-11T11:12:09.297Z,1.20
2023-04-11T11:14:39.547Z,1.10
2023-04-11T11:17:09.912Z,1.30
2023-04-11T11:19:46.773Z,2.17
2023-04-11T11:22:25.982Z,1.25
2023-04-11T11:24:56.200Z,1.45
2023-04-11T11:27:27.287Z,1.05
2023-04-11T11:29:56.993Z,1.10
2023-04-11T11:32:29.035Z,1.70
2023-04-11T11:35:01.543Z,1.38
2023-04-11T11:37:31.602Z,1.45
2023-04-11T11:40:01.486Z,1.20
2023-04-11T11:42:31.297Z,1.15
2023-04-11T11:45:18.887Z,1.20
2023-04-11T11:47:49.642Z,1.10
2023-04-11T11:50:35.058Z,1.33
2023-04-11T11:53:15.787Z,1.08
2023-04-11T11:55:46.118Z,0.80
2023-04-11T11:58:16.551Z,1.35
2023-04-11T12:00:46.174Z,1.13
2023-04-11T12:03:21.227Z,1.33
2023-04-11T12:05:56.204Z,1.42
2023-04-11T12:08:27.394Z,0.95
2023-04-11T12:10:57.024Z,1.08
2023-04-11T12:13:28.182Z,0.93
2023-04-11T12:15:59.386Z,0.70
2023-04-11T12:18:30.710Z,0.90
2023-04-11T12:21:02.955Z,1.10
2023-04-11T12:23:32.687Z,1.15
2023-04-11T12:26:02.868Z,0.90
2023-04-11T12:28:32.591Z,1.13
2023-04-11T12:31:02.393Z,0.90
2023-04-11T12:33:32.028Z,0.95
2023-04-11T12:36:04.497Z,1.00
2023-04-11T12:38:35.345Z,1.10
2023-04-11T12:41:30.283Z,0.55
2023-04-11T12:43:54.801Z,1.00
2023-04-11T12:46:24.765Z,0.95
2023-04-11T12:48:54.788Z,1.20
2023-04-11T12:51:27.668Z,1.23
2023-04-11T12:53:57.351Z,1.00
2023-04-11T12:56:27.123Z,0.90
2023-04-11T12:58:57.169Z,0.80
2023-04-11T13:01:27.476Z,0.80
2023-04-11T13:03:57.428Z,1.27
2023-04-11T13:06:30.207Z,1.00
2023-04-11T13:09:00.155Z,0.88
2023-04-11T13:11:29.828Z,0.85
2023-04-11T13:13:59.479Z,1.05
2023-04-11T13:16:29.218Z,1.20
2023-04-11T13:18:59.077Z,0.93
2023-04-11T13:21:31.787Z,1.10
2023-04-11T13:24:01.655Z,1.00
2023-04-11T13:26:31.387Z,1.33
2023-04-11T13:29:01.135Z,1.02
2023-04-11T13:31:30.903Z,1.50
2023-04-11T13:34:02.351Z,1.02
2023-04-11T13:36:35.775Z,0.70
2023-04-11T13:39:06.168Z,0.90
2023-04-11T13:41:35.898Z,0.60
2023-04-11T13:44:05.630Z,0.88
2023-04-11T13:46:35.365Z,0.77
2023-04-11T13:49:06.260Z,0.63
2023-04-11T13:51:38.538Z,0.95
2023-04-11T13:54:10.903Z,0.90
2023-04-11T13:56:40.616Z,0.80
2023-04-11T13:59:10.330Z,1.05
2023-04-11T14:01:40.095Z,0.60
2023-04-11T14:04:10.054Z,1.05
2023-04-11T14:06:43.445Z,0.90
2023-04-11T14:09:13.122Z,0.80
2023-04-11T14:11:43.998Z,0.65
2023-04-11T14:14:13.670Z,0.98
2023-04-11T14:16:43.492Z,1.30
2023-04-11T14:19:13.405Z,0.93
2023-04-11T14:21:45.838Z,1.00
2023-04-11T14:24:15.590Z,1.33
2023-04-11T14:26:45.242Z,1.08
2023-04-11T14:29:14.903Z,1.02
2023-04-11T14:31:44.811Z,1.25
2023-04-11T14:34:14.614Z,1.13
2023-04-11T14:36:47.028Z,1.13
2023-04-11T14:39:16.977Z,0.98
2023-04-11T14:41:46.668Z,1.83
2023-04-11T14:44:16.920Z,1.20
2023-04-11T14:46:46.553Z,1.13
2023-04-11T14:49:16.217Z,0.93
2023-04-11T14:51:48.510Z,1.13
2023-04-11T14:54:18.589Z,1.00
2023-04-11T14:56:48.401Z,0.80
2023-04-11T14:59:18.352Z,1.00
2023-04-11T15:01:48.115Z,0.93
2023-04-11T15:04:18.158Z,1.35
2023-04-11T15:06:50.518Z,0.80
2023-04-11T15:09:21.547Z,0.70
2023-04-11T15:11:51.789Z,0.70
2023-04-11T15:14:23.805Z,0.50
2023-04-11T15:16:53.489Z,1.02
2023-04-11T15:19:23.168Z,0.60
2023-04-11T15:21:55.720Z,0.70
2023-04-11T15:24:25.686Z,0.88
2023-04-11T15:26:55.389Z,0.80
2023-04-11T15:29:25.629Z,0.52
2023-04-11T15:31:55.303Z,0.88
2023-04-11T15:34:25.041Z,0.88
2023-04-11T15:36:57.891Z,0.60
2023-04-11T15:39:28.101Z,0.70
2023-04-11T15:41:57.788Z,0.77
2023-04-11T15:44:27.521Z,2.35
2023-04-11T15:46:57.242Z,0.82
2023-04-11T15:49:26.925Z,0.60
2023-04-11T15:51:59.268Z,0.90
2023-04-11T15:54:28.995Z,0.50
2023-04-11T15:56:58.678Z,0.98
2023-04-11T15:59:28.354Z,1.10
2023-04-11T16:01:58.177Z,1.60
2023-04-11T16:04:29.934Z,1.55
2023-04-11T16:07:02.487Z,2.03
2023-04-11T16:09:32.159Z,1.48
2023-04-11T16:26:14.610Z,0.90
2023-04-11T16:28:44.274Z,1.90
2023-04-11T16:31:15.404Z,0.98
2023-04-11T16:33:45.458Z,1.10
2023-04-11T16:36:16.949Z,4.03
2023-04-11T16:38:47.437Z,1.52
2023-04-11T16:41:20.910Z,1.98
2023-04-11T16:43:50.825Z,2.83
2023-04-11T16:46:21.131Z,6.55
2023-04-11T16:48:50.998Z,3.30
2023-04-11T16:51:21.608Z,1.70
2023-04-11T16:53:53.371Z,1.52
2023-04-11T16:56:27.505Z,4.45
2023-04-11T16:58:58.731Z,3.58
2023-04-11T17:01:28.495Z,4.03
2023-04-11T17:03:58.461Z,4.25
2023-04-11T17:06:28.266Z,4.10
2023-04-11T17:08:58.283Z,3.47
2023-04-11T17:11:30.558Z,3.33
2023-04-11T17:14:00.268Z,2.80
2023-04-11T17:16:30.004Z,3.08
2023-04-11T17:18:59.662Z,2.00
2023-04-11T17:21:29.448Z,2.20
2023-04-11T17:23:59.232Z,2.00
2023-04-11T17:26:31.548Z,2.90
2023-04-11T17:29:01.174Z,5.38
2023-04-11T17:31:30.894Z,4.68
2023-04-11T17:34:00.741Z,3.40
2023-04-11T17:36:31.056Z,2.38
2023-04-11T17:39:01.196Z,2.50
2023-04-11T17:41:33.477Z,2.38
2023-04-11T17:44:03.130Z,2.38
2023-04-11T17:46:32.824Z,1.90
2023-04-11T17:49:02.485Z,2.35
2023-04-11T17:51:32.194Z,1.67
2023-04-11T17:54:01.826Z,1.65
2023-04-11T17:56:34.618Z,2.10
2023-04-11T17:59:04.275Z,2.42
2023-04-11T18:01:34.730Z,1.80
2023-04-11T18:04:07.745Z,1.73
2023-04-11T18:06:37.510Z,1.70
2023-04-11T18:09:07.723Z,1.40
2023-04-11T18:11:42.110Z,1.60
2023-04-11T18:14:11.854Z,1.75
2023-04-11T18:16:41.654Z,2.03
2023-04-11T18:19:11.283Z,1.80
2023-04-11T18:21:41.793Z,2.08
2023-04-11T18:24:11.742Z,2.38
2023-04-11T18:26:44.026Z,2.55
2023-04-11T18:29:13.684Z,2.72
2023-04-11T18:31:43.372Z,2.25
2023-04-11T18:34:13.571Z,2.40
2023-04-11T18:36:43.746Z,2.00
2023-04-11T18:39:14.065Z,2.78
2023-04-11T18:41:46.959Z,2.58
2023-04-11T18:44:17.399Z,2.50
2023-04-11T18:46:47.187Z,2.88
2023-04-11T18:49:18.000Z,3.03
2023-04-11T18:51:47.885Z,2.35
2023-04-11T18:54:17.509Z,2.53
2023-04-11T18:56:53.112Z,2.35
2023-04-11T18:59:28.937Z,2.25
2023-04-11T19:01:59.527Z,2.10
2023-04-11T19:04:30.114Z,2.00
2023-04-11T19:06:59.968Z,5.38
2023-04-11T19:09:30.336Z,5.97
2023-04-11T19:12:02.746Z,4.57
2023-04-11T19:14:32.443Z,3.78
2023-04-11T19:17:02.369Z,3.42
2023-04-11T19:19:32.451Z,2.50
2023-04-11T19:22:02.157Z,2.80
2023-04-11T19:24:32.427Z,2.53
2023-04-11T19:27:05.763Z,2.03
2023-04-11T19:29:35.540Z,2.40
2023-04-11T19:32:05.242Z,2.20
2023-04-11T19:34:35.226Z,2.33
2023-04-11T19:37:05.805Z,2.53
2023-04-11T19:39:38.410Z,2.40
2023-04-11T19:42:12.050Z,1.95
2023-04-11T19:44:41.810Z,1.75
2023-04-11T19:47:11.500Z,1.67
2023-04-11T19:49:41.278Z,1.52
2023-04-11T19:52:11.105Z,2.30
2023-04-11T19:54:41.201Z,2.03
2023-04-11T19:57:13.449Z,2.25
2023-04-11T19:59:43.110Z,2.85
2023-04-11T20:02:12.995Z,2.75
2023-04-11T20:04:43.239Z,2.90
2023-04-11T20:07:13.247Z,4.18
2023-04-11T20:09:43.027Z,3.05
2023-04-11T20:12:15.242Z,3.42
2023-04-11T20:14:45.051Z,2.63
2023-04-11T20:17:15.141Z,3.15
2023-04-11T20:19:45.053Z,3.55
2023-04-11T20:22:18.553Z,3.67
2023-04-11T20:24:48.342Z,3.05
2023-04-11T20:27:20.902Z,2.72
2023-04-11T20:29:50.539Z,2.33
2023-04-11T20:32:20.255Z,2.38
2023-04-11T20:34:50.028Z,2.20
2023-04-11T20:37:22.427Z,1.73
2023-04-11T20:39:53.074Z,1.77
2023-04-11T20:42:25.963Z,1.60
2023-04-11T20:44:57.884Z,2.25
2023-04-11T20:47:27.673Z,3.03
2023-04-11T20:49:57.733Z,3.33
2023-04-11T20:52:27.363Z,2.70
2023-04-11T20:54:56.990Z,2.35
2023-04-11T20:57:30.759Z,2.45
2023-04-11T21:00:00.859Z,2.33
2023-04-11T21:02:32.540Z,3.30
2023-04-11T21:05:02.391Z,4.38
2023-04-11T21:07:32.588Z,4.20
2023-04-11T21:10:02.575Z,6.78
2023-04-11T21:12:34.977Z,5.30
2023-04-11T21:15:05.515Z,4.38
2023-04-11T21:17:37.435Z,3.85
2023-04-11T21:20:11.295Z,4.00
2023-04-11T21:22:40.980Z,3.42
2023-04-11T21:25:11.970Z,3.38
2023-04-11T21:27:44.275Z,3.08
2023-04-11T21:30:15.154Z,2.92
2023-04-11T21:32:44.836Z,2.63
2023-04-11T21:35:14.951Z,2.47
2023-04-11T21:37:46.461Z,2.20
2023-04-11T21:40:17.507Z,2.40
2023-04-11T21:42:50.036Z,2.00
2023-04-11T21:45:19.964Z,1.77
2023-04-11T21:47:49.633Z,1.92
2023-04-11T21:50:19.665Z,2.30
2023-04-11T21:52:49.738Z,2.17
2023-04-11T21:55:19.615Z,2.28
2023-04-11T21:57:51.869Z,2.00
2023-04-11T22:00:22.309Z,1.90
2023-04-11T22:02:52.146Z,2.33
2023-04-11T22:05:22.301Z,2.40
2023-04-11T22:07:53.149Z,2.17
2023-04-11T22:10:30.469Z,2.50
2023-04-11T22:13:10.296Z,2.70
2023-04-11T22:15:40.274Z,2.55
2023-04-11T22:18:11.445Z,3.30
2023-04-11T22:20:43.861Z,3.58
2023-04-11T22:23:13.924Z,3.25
2023-04-11T22:25:43.620Z,2.60
2023-04-11T22:28:18.544Z,2.65
2023-04-11T22:30:48.293Z,2.63
2023-04-11T22:33:18.269Z,2.53
2023-04-11T22:35:48.194Z,2.90
2023-04-11T22:38:18.563Z,2.97
2023-04-11T22:40:48.221Z,3.20
2023-04-11T22:43:20.518Z,3.17
2023-04-11T22:45:50.261Z,2.70
2023-04-11T22:48:20.043Z,2.25
2023-04-11T22:50:53.114Z,2.60
2023-04-11T22:53:25.157Z,2.58
2023-04-11T22:55:54.839Z,2.17
2023-04-11T22:58:27.242Z,2.55
2023-04-11T23:00:56.974Z,2.40
2023-04-11T23:03:28.052Z,2.72
2023-04-11T23:05:57.703Z,2.40
2023-04-11T23:08:27.329Z,2.05
2023-04-11T23:10:56.965Z,2.58
2023-04-11T23:13:29.324Z,2.83
2023-04-11T23:15:59.166Z,2.40
2023-04-11T23:18:28.805Z,2.63
2023-04-11T23:20:58.436Z,2.88
2023-04-11T23:23:28.287Z,2.35
2023-04-11T23:25:58.812Z,2.53
2023-04-11T23:28:31.018Z,2.30
2023-04-11T23:31:00.740Z,2.33
2023-04-11T23:33:31.136Z,2.63
2023-04-11T23:36:00.804Z,2.88
2023-04-11T23:38:30.483Z,2.40
2023-04-11T23:41:00.215Z,2.78
2023-04-11T23:43:32.434Z,2.65
2023-04-11T23:46:02.169Z,2.35
2023-04-11T23:48:32.350Z,3.03
2023-04-11T23:51:02.318Z,2.63
2023-04-11T23:53:32.114Z,2.30
2023-04-11T23:56:01.955Z,2.30
2023-04-11T23:58:34.503Z,2.78
